Time;durP1;ratioP1;P1;durP2;ratioP2;P2;SDS_P1;SDS_P2;PMS_P1;PMS_P2;Temp;Humidity;BMP_temperature;BMP_pressure;BME280_temperature;BME280_humidity;BME280_pressure;Samples;Min_cycle;Max_cycle;Signal;HPM_P1;HPM_P2
2022/02/01 00:03:45;;;;;;;7.55;1.52;;;5.10;80.70;;;;;;5059165;28;20503;-79
2022/02/01 00:08:45;;;;;;;11.98;2.17;;;5.10;80.90;;;;;;5064303;28;20025;-79
2022/02/01 00:11:27;;;;;;;11.93;1.98;;;5.20;80.90;;;;;;5067257;28;20475;-79
2022/02/01 00:14:19;;;;;;;7.20;2.10;;;5.10;80.90;;;;;;5060470;28;20395;-79
2022/02/01 00:17:05;;;;;;;10.30;2.03;;;5.20;81.00;;;;;;5077926;28;20471;-81
2022/02/01 00:19:45;;;;;;;8.02;2.00;;;5.10;81.00;;;;;;5066079;28;20360;-79
2022/02/01 00:33:33;;;;;;;7.82;2.10;;;5.10;81.00;;;;;;5060871;28;20531;-82
2022/02/01 00:38:41;;;;;;;7.90;1.83;;;5.10;81.10;;;;;;5064912;28;20029;-81
2022/02/01 00:41:08;;;;;;;7.10;1.95;;;5.10;81.20;;;;;;5064101;28;20028;-81
2022/02/01 00:43:33;;;;;;;7.55;1.58;;;5.10;81.20;;;;;;5065829;28;20059;-81
2022/02/01 00:46:02;;;;;;;7.75;1.90;;;5.10;81.20;;;;;;5067721;28;20066;-82
2022/02/01 00:48:28;;;;;;;7.95;1.80;;;5.10;81.20;;;;;;5066447;28;20361;-81
2022/02/01 00:50:53;;;;;;;6.25;1.60;;;5.10;81.10;;;;;;5065697;28;20044;-81
2022/02/01 00:53:26;;;;;;;6.88;1.75;;;5.00;81.10;;;;;;5067058;28;20508;-81
2022/02/01 00:55:52;;;;;;;10.48;2.03;;;5.10;81.00;;;;;;5066937;28;20475;-82
2022/02/01 00:58:17;;;;;;;7.75;1.60;;;5.10;81.00;;;;;;5059224;28;20075;-79
2022/02/01 01:00:43;;;;;;;6.70;1.77;;;5.10;81.00;;;;;;5061555;28;20106;-80
2022/02/01 01:03:09;;;;;;;11.48;2.13;;;5.10;81.10;;;;;;5068424;28;20021;-80
2022/02/01 01:05:34;;;;;;;9.38;1.80;;;5.10;81.10;;;;;;5065112;28;20064;-79
2022/02/01 01:08:00;;;;;;;6.38;1.77;;;5.10;81.10;;;;;;5061518;28;20110;-79
2022/02/01 01:10:25;;;;;;;6.25;1.95;;;5.10;81.10;;;;;;5062561;28;20028;-79
2022/02/01 01:13:03;;;;;;;6.70;1.70;;;5.10;81.10;;;;;;5059224;28;20042;-79
2022/02/01 01:15:31;;;;;;;9.52;1.70;;;5.10;81.00;;;;;;5062867;28;20048;-79
2022/02/01 01:45:54;;;;;;;4.93;1.70;;;5.20;80.90;;;;;;5064594;28;20095;-79
2022/02/01 01:53:48;;;;;;;5.95;1.40;;;5.20;80.80;;;;;;5063217;28;20043;-79
2022/02/01 01:56:15;;;;;;;8.38;1.80;;;5.20;80.90;;;;;;5067951;28;20443;-79
2022/02/01 01:58:41;;;;;;;9.48;2.13;;;5.20;80.80;;;;;;5069748;28;20031;-80
2022/02/01 02:01:14;;;;;;;7.22;1.80;;;5.20;80.80;;;;;;5069831;28;20021;-80
2022/02/01 02:03:42;;;;;;;7.93;2.08;;;5.30;80.80;;;;;;5068652;28;20029;-80
2022/02/01 02:06:07;;;;;;;4.43;1.40;;;5.30;80.80;;;;;;5066807;28;20036;-79
2022/02/01 02:08:34;;;;;;;8.95;2.00;;;5.30;80.80;;;;;;5059980;28;20093;-80
2022/02/01 02:11:04;;;;;;;9.77;1.88;;;5.20;80.70;;;;;;5062400;28;20059;-79
2022/02/01 02:16:00;;;;;;;7.78;1.88;;;5.30;80.80;;;;;;5070788;28;20129;-80
2022/02/01 02:18:31;;;;;;;7.20;1.50;;;5.30;80.80;;;;;;5072278;28;20076;-81
2022/02/01 02:20:59;;;;;;;6.53;1.88;;;5.30;80.80;;;;;;5064811;28;20058;-82
2022/02/01 02:23:25;;;;;;;5.35;1.45;;;5.30;80.80;;;;;;5056164;28;20037;-81
2022/02/01 02:25:51;;;;;;;6.60;1.33;;;5.30;80.80;;;;;;5068904;28;20455;-81
2022/02/01 02:28:18;;;;;;;4.82;1.13;;;5.40;80.80;;;;;;5065904;28;20042;-81
2022/02/01 02:30:45;;;;;;;10.30;2.00;;;5.40;80.60;;;;;;5062158;28;20128;-81
2022/02/01 02:33:14;;;;;;;5.13;1.58;;;5.40;80.60;;;;;;5061189;28;20025;-81
2022/02/01 02:36:18;;;;;;;7.82;1.80;;;5.40;80.60;;;;;;5067206;28;20029;-80
2022/02/01 02:38:49;;;;;;;5.85;1.63;;;5.40;80.50;;;;;;5035124;28;20710;-80
2022/02/01 02:46:45;;;;;;;8.40;1.50;;;5.40;80.40;;;;;;5068235;28;20136;-80
2022/02/01 02:49:15;;;;;;;5.20;1.48;;;5.40;80.30;;;;;;5059103;28;20100;-82
2022/02/01 02:51:41;;;;;;;4.50;1.52;;;5.30;80.30;;;;;;5059502;28;20492;-81
2022/02/01 02:54:10;;;;;;;3.45;1.17;;;5.40;80.30;;;;;;5053116;28;20112;-81
2022/02/01 02:56:36;;;;;;;8.02;1.60;;;5.40;80.30;;;;;;5064267;28;20456;-81
2022/02/01 02:59:03;;;;;;;7.15;1.40;;;5.40;80.20;;;;;;5068894;28;20033;-79
2022/02/01 03:01:29;;;;;;;6.43;1.40;;;5.40;80.10;;;;;;5068729;28;20175;-79
2022/02/01 03:03:54;;;;;;;6.60;1.67;;;5.40;80.10;;;;;;5061728;28;20038;-79
2022/02/01 03:06:20;;;;;;;4.43;1.10;;;5.40;80.10;;;;;;5067212;28;20115;-79
2022/02/01 03:08:46;;;;;;;4.65;1.40;;;5.40;80.00;;;;;;5063496;28;20147;-78
2022/02/01 03:11:15;;;;;;;5.65;1.50;;;5.40;80.00;;;;;;5060932;28;20025;-79
2022/02/01 03:13:44;;;;;;;4.38;1.10;;;5.40;80.00;;;;;;5068275;28;20063;-79
2022/02/01 03:21:32;;;;;;;5.43;1.25;;;5.40;80.00;;;;;;5064115;28;20036;-79
2022/02/01 03:23:57;;;;;;;4.43;1.40;;;5.40;80.00;;;;;;5067159;28;20032;-80
2022/02/01 03:26:23;;;;;;;5.63;1.33;;;5.40;79.90;;;;;;5063540;28;20525;-80
2022/02/01 03:28:48;;;;;;;8.25;1.48;;;5.40;79.90;;;;;;5062472;28;20017;-80
2022/02/01 03:31:14;;;;;;;6.15;1.50;;;5.30;79.90;;;;;;5063485;28;20055;-80
2022/02/01 03:33:40;;;;;;;5.05;1.50;;;5.30;79.90;;;;;;5070178;28;20069;-81
2022/02/01 03:36:06;;;;;;;4.55;1.23;;;5.30;79.90;;;;;;5063851;28;20013;-80
2022/02/01 03:38:31;;;;;;;3.65;1.25;;;5.40;80.00;;;;;;5066267;28;20028;-80
2022/02/01 03:40:57;;;;;;;6.50;1.30;;;5.40;80.00;;;;;;5060436;28;20021;-79
2022/02/01 03:43:22;;;;;;;6.72;2.03;;;5.40;80.00;;;;;;5065042;28;20021;-79
2022/02/01 03:45:48;;;;;;;5.13;1.70;;;5.40;80.00;;;;;;5064211;28;20041;-79
2022/02/01 03:48:13;;;;;;;5.43;1.65;;;5.40;79.90;;;;;;5066593;28;20021;-79
2022/02/01 03:50:39;;;;;;;4.78;1.50;;;5.50;80.00;;;;;;5067949;28;20021;-83
2022/02/01 03:53:05;;;;;;;7.95;2.00;;;5.50;80.00;;;;;;5069523;28;20039;-81
2022/02/01 03:55:30;;;;;;;4.65;1.25;;;5.50;80.00;;;;;;5065461;28;20016;-78
2022/02/01 03:57:56;;;;;;;7.10;1.75;;;5.50;80.00;;;;;;5068103;28;20027;-79
2022/02/01 04:00:21;;;;;;;7.65;1.55;;;5.60;80.00;;;;;;5065972;28;20092;-78
2022/02/01 04:02:47;;;;;;;5.75;1.42;;;5.50;79.80;;;;;;5067690;28;20111;-79
2022/02/01 04:05:13;;;;;;;5.72;1.50;;;5.60;79.90;;;;;;5063059;28;20032;-78
2022/02/01 04:07:43;;;;;;;4.95;1.30;;;5.60;79.90;;;;;;5065403;28;20028;-80
2022/02/01 04:10:09;;;;;;;5.32;1.63;;;5.60;79.80;;;;;;5058162;28;20032;-79
2022/02/01 04:12:35;;;;;;;5.70;1.70;;;5.70;79.80;;;;;;5065146;28;20027;-79
2022/02/01 04:15:01;;;;;;;4.75;1.45;;;5.70;79.80;;;;;;5075339;28;20020;-80
2022/02/01 04:17:26;;;;;;;5.68;1.52;;;5.60;80.00;;;;;;5071886;28;20407;-82
2022/02/01 04:19:52;;;;;;;6.38;1.48;;;5.60;79.70;;;;;;5064635;28;20035;-82
2022/02/01 04:22:17;;;;;;;7.03;1.50;;;5.60;79.80;;;;;;5062640;28;20433;-81
2022/02/01 04:24:45;;;;;;;7.95;2.22;;;5.60;79.80;;;;;;5067139;28;20033;-81
2022/02/01 04:27:22;;;;;;;5.95;1.60;;;5.60;79.90;;;;;;5060607;28;20393;-81
2022/02/01 04:29:54;;;;;;;6.35;1.52;;;5.60;79.90;;;;;;5068015;28;20490;-79
2022/02/01 04:32:19;;;;;;;4.20;1.70;;;5.60;79.90;;;;;;5058840;28;20032;-79
2022/02/01 04:34:49;;;;;;;4.13;1.60;;;5.60;79.90;;;;;;5066700;28;20679;-80
2022/02/01 04:37:15;;;;;;;7.47;1.60;;;5.60;80.00;;;;;;5063698;28;20051;-80
2022/02/01 04:39:40;;;;;;;6.43;2.20;;;5.60;80.00;;;;;;5062079;28;20064;-79
2022/02/01 04:42:06;;;;;;;6.43;1.85;;;5.60;80.00;;;;;;5063695;28;20103;-79
2022/02/01 04:44:31;;;;;;;6.15;2.15;;;5.60;80.00;;;;;;5061844;28;20036;-80
2022/02/01 04:46:57;;;;;;;8.07;2.38;;;5.60;80.00;;;;;;5065091;28;20025;-80
2022/02/01 04:49:22;;;;;;;6.00;1.70;;;5.60;80.00;;;;;;5065980;28;20383;-80
2022/02/01 04:51:48;;;;;;;7.32;1.63;;;5.60;80.20;;;;;;5070581;28;20039;-79
2022/02/01 04:54:13;;;;;;;6.20;2.05;;;5.60;80.10;;;;;;5070457;28;20234;-79
2022/02/01 04:56:39;;;;;;;4.90;1.70;;;5.60;80.20;;;;;;5062521;28;20037;-79
2022/02/01 04:59:04;;;;;;;7.95;1.80;;;5.60;80.20;;;;;;5070524;28;20019;-81
2022/02/01 05:01:37;;;;;;;5.35;1.60;;;5.60;80.20;;;;;;5069347;28;20023;-81
2022/02/01 05:04:08;;;;;;;5.03;1.80;;;5.60;80.20;;;;;;5068368;28;20021;-81
2022/02/01 05:06:34;;;;;;;6.65;1.65;;;5.60;80.30;;;;;;5066074;28;20095;-79
2022/02/01 05:09:01;;;;;;;9.25;2.10;;;5.50;80.20;;;;;;5067897;28;20028;-80
2022/02/01 05:11:27;;;;;;;11.05;2.15;;;5.50;80.30;;;;;;5069828;28;20028;-81
2022/02/01 05:14:14;;;;;;;4.57;1.60;;;5.40;80.50;;;;;;5064583;28;20108;-81
2022/02/01 05:19:11;;;;;;;5.15;1.42;;;5.40;80.80;;;;;;5078145;28;20036;-81
2022/02/01 05:21:38;;;;;;;12.45;2.97;;;5.30;80.80;;;;;;5063627;28;20032;-81
2022/02/01 05:24:05;;;;;;;7.65;2.67;;;5.30;80.90;;;;;;5070477;28;20054;-81
2022/02/01 05:26:32;;;;;;;6.40;2.05;;;5.20;81.10;;;;;;5062827;28;20020;-80
2022/02/01 05:28:58;;;;;;;11.23;2.38;;;5.20;81.20;;;;;;5070018;28;20047;-81
2022/02/01 05:31:25;;;;;;;8.35;1.95;;;5.20;81.30;;;;;;5070436;28;20025;-82
2022/02/01 05:33:51;;;;;;;4.93;1.70;;;5.20;81.40;;;;;;5069541;28;20376;-81
2022/02/01 05:36:16;;;;;;;4.95;1.52;;;5.20;81.50;;;;;;5069166;28;20098;-81
2022/02/01 05:38:42;;;;;;;10.13;2.25;;;5.20;81.60;;;;;;5068992;28;20633;-81
2022/02/01 05:41:10;;;;;;;6.25;2.20;;;5.20;82.30;;;;;;5057372;28;20024;-80
2022/02/01 05:43:41;;;;;;;11.00;2.85;;;5.20;81.80;;;;;;5067814;28;20031;-81
2022/02/01 05:46:07;;;;;;;6.95;2.08;;;5.10;81.90;;;;;;5064063;28;20067;-81
2022/02/01 05:48:33;;;;;;;6.18;2.33;;;5.10;82.10;;;;;;5071650;28;20039;-81
2022/02/01 05:51:00;;;;;;;6.45;2.22;;;5.10;82.30;;;;;;5068511;28;20033;-80
2022/02/01 05:53:26;;;;;;;5.55;2.00;;;5.10;82.30;;;;;;5064103;28;20104;-81
2022/02/01 05:55:52;;;;;;;5.70;1.80;;;5.20;82.40;;;;;;5068618;28;20467;-80
2022/02/01 05:58:18;;;;;;;9.20;2.42;;;5.20;82.40;;;;;;5065981;28;20067;-81
2022/02/01 06:00:44;;;;;;;8.95;2.45;;;5.20;82.40;;;;;;5059718;28;20059;-78
2022/02/01 06:03:10;;;;;;;7.03;1.85;;;5.20;82.40;;;;;;5080815;28;20130;-77
2022/02/01 06:05:37;;;;;;;10.38;2.50;;;5.20;82.40;;;;;;5071679;28;20507;-78
2022/02/01 06:08:02;;;;;;;7.95;1.92;;;5.20;82.40;;;;;;5071789;28;20029;-79
2022/02/01 06:10:29;;;;;;;5.80;1.90;;;5.30;82.50;;;;;;5061749;28;20060;-78
2022/02/01 06:12:56;;;;;;;6.93;2.25;;;5.30;83.10;;;;;;5057667;28;20023;-81
2022/02/01 06:15:26;;;;;;;7.95;1.95;;;5.30;82.50;;;;;;5068905;28;20028;-81
2022/02/01 06:17:53;;;;;;;11.15;2.42;;;5.30;82.50;;;;;;5085104;28;20092;-81
2022/02/01 06:20:18;;;;;;;8.15;2.50;;;5.30;82.50;;;;;;5071321;28;20217;-81
2022/02/01 06:22:44;;;;;;;7.90;2.20;;;5.40;82.60;;;;;;5068557;28;20028;-81
2022/02/01 06:25:10;;;;;;;6.82;2.30;;;5.40;82.60;;;;;;5069342;28;20032;-80
2022/02/01 06:27:36;;;;;;;11.10;2.28;;;5.40;82.70;;;;;;5073988;28;20032;-80
2022/02/01 06:30:04;;;;;;;9.52;2.28;;;5.40;82.70;;;;;;5074597;28;20025;-80
2022/02/01 06:32:32;;;;;;;9.57;2.70;;;5.40;82.80;;;;;;5075878;28;20058;-80
2022/02/01 06:34:57;;;;;;;9.25;2.53;;;5.40;82.90;;;;;;5074707;28;20028;-81
2022/02/01 06:37:23;;;;;;;7.78;2.03;;;5.40;83.00;;;;;;5070797;28;20032;-80
2022/02/01 06:39:49;;;;;;;9.85;2.50;;;5.40;83.00;;;;;;5079260;28;20028;-79
2022/02/01 06:42:16;;;;;;;9.77;2.58;;;5.50;83.10;;;;;;5078563;28;20024;-81
2022/02/01 06:44:42;;;;;;;12.15;2.85;;;5.50;83.10;;;;;;5078738;28;20028;-80
2022/02/01 06:47:07;;;;;;;9.13;2.40;;;5.50;83.20;;;;;;5069413;28;20043;-81
2022/02/01 06:49:33;;;;;;;9.63;3.00;;;5.50;83.30;;;;;;5070017;28;20506;-80
2022/02/01 06:51:59;;;;;;;10.65;2.70;;;5.50;83.30;;;;;;5068299;28;20048;-79
2022/02/01 06:54:24;;;;;;;9.40;2.40;;;5.50;83.40;;;;;;5063781;28;20028;-81
2022/02/01 06:56:50;;;;;;;6.05;2.30;;;5.50;83.40;;;;;;5066615;28;20395;-80
2022/02/01 06:59:15;;;;;;;11.13;3.38;;;5.50;83.40;;;;;;5065637;28;20624;-82
2022/02/01 07:01:41;;;;;;;8.43;3.22;;;5.50;83.50;;;;;;5069147;28;20120;-79
2022/02/01 07:04:07;;;;;;;12.02;3.28;;;5.50;83.70;;;;;;5069267;28;20070;-82
2022/02/01 07:06:34;;;;;;;10.70;3.50;;;5.60;83.90;;;;;;5063483;28;20041;-82
2022/02/01 07:09:02;;;;;;;10.60;3.75;;;5.50;83.90;;;;;;5068716;28;20067;-80
2022/02/01 07:11:28;;;;;;;13.20;3.83;;;5.50;84.00;;;;;;5058209;28;20677;-81
2022/02/01 07:13:54;;;;;;;9.30;3.70;;;5.60;84.20;;;;;;5064612;28;20375;-77
2022/02/01 07:16:20;;;;;;;8.95;3.78;;;5.60;84.40;;;;;;5070137;28;20024;-79
2022/02/01 07:18:46;;;;;;;11.18;3.97;;;5.60;84.50;;;;;;5065397;28;20077;-77
2022/02/01 07:21:12;;;;;;;9.45;3.92;;;5.60;84.60;;;;;;5075923;28;20020;-78
2022/02/01 07:23:39;;;;;;;13.57;5.00;;;5.60;84.70;;;;;;5067424;28;20033;-77
2022/02/01 07:26:07;;;;;;;8.93;4.07;;;5.70;85.10;;;;;;5063435;28;20046;-80
2022/02/01 07:28:33;;;;;;;9.35;4.25;;;5.60;85.30;;;;;;5067670;28;20021;-80
2022/02/01 07:31:01;;;;;;;9.75;4.00;;;5.60;85.40;;;;;;5068688;28;20034;-81
2022/02/01 07:33:28;;;;;;;8.38;3.55;;;5.70;85.60;;;;;;5058201;28;20021;-80
2022/02/01 07:35:55;;;;;;;8.82;4.10;;;5.80;85.70;;;;;;5063353;28;20037;-78
2022/02/01 07:38:22;;;;;;;8.57;4.20;;;5.80;85.80;;;;;;5065476;28;20013;-78
2022/02/01 07:40:52;;;;;;;10.20;4.05;;;5.80;85.80;;;;;;5061939;28;20039;-80
2022/02/01 07:43:18;;;;;;;13.77;5.78;;;5.80;85.90;;;;;;5060330;28;20064;-83
2022/02/01 07:45:46;;;;;;;13.10;5.53;;;5.80;86.10;;;;;;5058157;28;20041;-84
2022/02/01 07:48:12;;;;;;;10.27;5.15;;;5.80;86.20;;;;;;5064753;28;20105;-83
2022/02/01 07:50:39;;;;;;;12.40;4.80;;;5.80;86.30;;;;;;5066031;28;20831;-83
2022/02/01 07:53:05;;;;;;;7.53;3.78;;;5.80;86.30;;;;;;5063615;28;20020;-80
2022/02/01 07:55:31;;;;;;;13.75;5.70;;;5.90;86.30;;;;;;5063922;28;20552;-79
2022/02/01 07:57:57;;;;;;;8.70;4.72;;;5.80;86.40;;;;;;5064467;28;20099;-81
2022/02/01 08:00:22;;;;;;;12.55;6.22;;;5.90;86.70;;;;;;5059169;28;20281;-80
2022/02/01 08:02:55;;;;;;;13.93;6.63;;;5.80;86.70;;;;;;5060855;28;20033;-77
2022/02/01 08:05:22;;;;;;;11.23;6.00;;;5.80;86.80;;;;;;5064433;28;20040;-79
2022/02/01 08:07:47;;;;;;;7.90;4.80;;;5.80;86.90;;;;;;5061022;28;20052;-77
2022/02/01 08:10:15;;;;;;;11.02;6.45;;;5.80;87.00;;;;;;5070948;28;20560;-78
2022/02/01 08:16:06;;;;;;;11.43;7.10;;;5.80;87.00;;;;;;5069775;28;20036;-76
2022/02/01 08:18:21;;;;;;;12.88;7.70;;;5.80;87.20;;;;;;5071799;28;20484;-77
2022/02/01 08:21:06;;;;;;;8.20;5.88;;;5.80;87.40;;;;;;5071216;28;20161;-77
2022/02/01 08:23:31;;;;;;;14.88;7.70;;;5.80;87.40;;;;;;5078109;28;20024;-77
2022/02/01 08:25:58;;;;;;;16.98;9.48;;;5.80;87.50;;;;;;5075372;28;20124;-78
2022/02/01 08:28:24;;;;;;;12.50;7.97;;;5.90;87.60;;;;;;5065847;28;20078;-76
2022/02/01 08:30:51;;;;;;;12.70;6.95;;;5.90;87.90;;;;;;5066697;28;20032;-74
2022/02/01 08:33:17;;;;;;;14.00;7.95;;;5.90;88.00;;;;;;5075604;28;20025;-75
2022/02/01 08:35:43;;;;;;;11.55;7.35;;;5.90;88.00;;;;;;5067753;28;20030;-75
2022/02/01 08:38:09;;;;;;;13.88;9.00;;;5.90;88.00;;;;;;5069210;28;20035;-74
2022/02/01 08:40:34;;;;;;;12.07;7.75;;;5.90;88.10;;;;;;5074246;28;20052;-79
2022/02/01 08:43:00;;;;;;;10.75;7.00;;;5.90;88.20;;;;;;5063589;28;20017;-78
2022/02/01 08:45:26;;;;;;;14.57;9.32;;;5.90;88.30;;;;;;5072847;28;20067;-79
2022/02/01 08:47:54;;;;;;;12.60;8.45;;;6.00;88.40;;;;;;5076444;28;20021;-79
2022/02/01 08:50:27;;;;;;;10.52;7.00;;;6.00;88.60;;;;;;5072062;28;20082;-77
2022/02/01 08:52:53;;;;;;;11.68;8.20;;;6.00;88.60;;;;;;5066582;28;20028;-79
2022/02/01 08:55:32;;;;;;;13.90;9.15;;;6.00;88.60;;;;;;5067822;28;20040;-74
2022/02/01 08:57:59;;;;;;;12.77;9.25;;;6.00;88.70;;;;;;5061744;28;20379;-74
2022/02/01 09:00:25;;;;;;;12.40;8.85;;;6.00;88.90;;;;;;5074799;28;20025;-75
2022/02/01 09:02:50;;;;;;;12.35;9.00;;;6.10;89.00;;;;;;5073708;28;20078;-75
2022/02/01 09:05:16;;;;;;;13.73;9.27;;;6.10;89.00;;;;;;5070251;28;20044;-75
2022/02/01 09:07:43;;;;;;;12.43;9.18;;;6.10;89.20;;;;;;5070204;28;20016;-75
2022/02/01 09:10:09;;;;;;;9.88;7.63;;;6.10;89.30;;;;;;5067748;28;20413;-76
2022/02/01 09:12:35;;;;;;;13.88;9.65;;;6.20;89.30;;;;;;5073942;28;20025;-76
2022/02/01 09:15:00;;;;;;;11.15;7.65;;;6.20;89.30;;;;;;5065567;28;20486;-77
2022/02/01 09:17:26;;;;;;;9.93;7.38;;;6.20;89.30;;;;;;5071393;28;20025;-76
2022/02/01 09:19:52;;;;;;;8.43;7.10;;;6.20;89.40;;;;;;5073231;28;20067;-75
2022/02/01 09:22:17;;;;;;;12.02;8.13;;;6.30;89.50;;;;;;5074087;28;20240;-78
2022/02/01 09:24:44;;;;;;;11.93;8.77;;;6.30;89.60;;;;;;5074977;28;20028;-77
2022/02/01 09:27:11;;;;;;;12.48;8.60;;;6.30;89.70;;;;;;5054077;28;20600;-78
2022/02/01 09:29:36;;;;;;;9.80;7.47;;;6.30;90.00;;;;;;5075224;28;20020;-77
2022/02/01 09:32:03;;;;;;;12.60;9.70;;;6.30;90.00;;;;;;5068574;28;20039;-77
2022/02/01 09:34:31;;;;;;;11.30;8.80;;;6.30;90.00;;;;;;5068101;28;20433;-79
2022/02/01 09:36:57;;;;;;;11.88;9.02;;;6.40;90.00;;;;;;5074308;28;20021;-79
2022/02/01 09:39:24;;;;;;;6.85;5.72;;;6.40;90.10;;;;;;5071852;28;20119;-79
2022/02/01 09:41:51;;;;;;;12.75;9.27;;;6.40;90.10;;;;;;5071608;28;20036;-78
2022/02/01 09:44:18;;;;;;;10.48;7.93;;;6.40;90.00;;;;;;5069662;28;20027;-78
2022/02/01 09:46:48;;;;;;;12.73;9.18;;;6.40;90.00;;;;;;5061124;28;20032;-77
2022/02/01 09:49:19;;;;;;;11.90;9.45;;;6.40;90.00;;;;;;5061971;28;20471;-77
2022/02/01 09:51:48;;;;;;;10.32;7.68;;;6.40;90.10;;;;;;5065100;28;20034;-78
2022/02/01 09:54:13;;;;;;;9.75;7.93;;;6.40;90.10;;;;;;5069436;28;20047;-76
2022/02/01 09:56:39;;;;;;;11.15;8.77;;;6.50;90.40;;;;;;5063312;28;20052;-75
2022/02/01 09:59:19;;;;;;;8.80;6.85;;;6.50;90.20;;;;;;5071487;28;20027;-76
2022/02/01 10:01:47;;;;;;;7.68;6.50;;;6.50;90.20;;;;;;5061646;28;20025;-76
2022/02/01 10:04:13;;;;;;;8.85;6.80;;;6.50;90.20;;;;;;5069429;28;20503;-76
2022/02/01 10:06:43;;;;;;;10.60;8.23;;;6.60;90.20;;;;;;5066726;28;20037;-75
2022/02/01 10:09:11;;;;;;;6.72;5.57;;;6.60;90.20;;;;;;5074883;28;20017;-75
2022/02/01 10:11:42;;;;;;;8.68;6.75;;;6.60;90.30;;;;;;5067903;28;20039;-76
2022/02/01 10:14:12;;;;;;;6.57;5.20;;;6.70;90.30;;;;;;5071235;28;20020;-76
2022/02/01 10:16:54;;;;;;;7.22;5.20;;;6.70;90.30;;;;;;5066080;28;20118;-77
2022/02/01 10:19:20;;;;;;;6.35;5.22;;;6.70;90.30;;;;;;5065395;28;20033;-77
2022/02/01 10:21:50;;;;;;;5.40;4.55;;;6.80;90.20;;;;;;5061959;28;20107;-77
2022/02/01 10:24:31;;;;;;;4.88;3.80;;;6.80;90.30;;;;;;5070583;28;20032;-77
2022/02/01 10:27:06;;;;;;;5.30;4.18;;;6.80;90.20;;;;;;5065376;28;20032;-77
2022/02/01 10:29:34;;;;;;;5.47;4.47;;;6.80;90.20;;;;;;5063637;28;20024;-75
2022/02/01 10:32:01;;;;;;;5.32;3.88;;;6.90;90.30;;;;;;5067763;28;20067;-75
2022/02/01 10:36:56;;;;;;;5.88;4.80;;;6.90;90.30;;;;;;5065160;28;20036;-80
2022/02/01 10:39:27;;;;;;;4.68;3.70;;;7.00;90.30;;;;;;5067428;28;20021;-76
2022/02/01 10:42:04;;;;;;;4.70;4.07;;;7.00;90.30;;;;;;5069656;28;20024;-74
2022/02/01 10:44:44;;;;;;;4.82;4.00;;;7.00;90.30;;;;;;5065124;28;20578;-72
2022/02/01 10:47:15;;;;;;;4.40;4.00;;;7.00;90.40;;;;;;5057805;28;20021;-73
2022/02/01 10:49:41;;;;;;;4.03;3.45;;;7.00;90.40;;;;;;5064540;28;20059;-72
2022/02/01 10:52:12;;;;;;;4.88;4.00;;;7.10;90.40;;;;;;5064155;28;20040;-73
2022/02/01 10:54:40;;;;;;;4.50;3.80;;;7.10;90.40;;;;;;5066259;28;20051;-73
2022/02/01 10:57:08;;;;;;;5.68;4.18;;;7.10;90.40;;;;;;5064187;28;20065;-75
2022/02/01 10:59:36;;;;;;;4.45;3.45;;;7.10;90.40;;;;;;5063949;28;20065;-76
2022/02/01 11:02:03;;;;;;;4.40;3.78;;;7.20;90.40;;;;;;5064513;28;20029;-77
2022/02/01 11:04:31;;;;;;;5.00;3.65;;;7.20;90.40;;;;;;5072446;28;20032;-78
2022/02/01 11:06:57;;;;;;;5.40;4.05;;;7.30;90.40;;;;;;5061335;28;20495;-78
2022/02/01 11:09:28;;;;;;;4.10;3.20;;;7.30;90.40;;;;;;5068286;28;20031;-78
2022/02/01 11:11:57;;;;;;;3.53;3.10;;;7.40;90.40;;;;;;5069852;28;20021;-78
2022/02/01 11:14:24;;;;;;;3.10;2.80;;;7.40;90.40;;;;;;5068842;28;20031;-77
2022/02/01 11:17:07;;;;;;;4.57;3.95;;;7.50;90.40;;;;;;5059802;28;20035;-78
2022/02/01 11:19:48;;;;;;;3.83;3.20;;;7.50;90.40;;;;;;5065970;28;20024;-78
2022/02/01 11:22:25;;;;;;;3.20;2.90;;;7.50;90.40;;;;;;5065647;28;20058;-77
2022/02/01 11:25:00;;;;;;;2.65;2.10;;;7.60;90.40;;;;;;5068647;28;20025;-77
2022/02/01 11:27:47;;;;;;;3.03;2.60;;;7.60;90.40;;;;;;5063931;28;20028;-79
2022/02/01 11:30:13;;;;;;;2.22;2.00;;;7.60;90.40;;;;;;5063932;28;20028;-79
2022/02/01 11:32:50;;;;;;;3.63;3.17;;;7.70;90.40;;;;;;5062426;28;20215;-77
2022/02/01 11:35:23;;;;;;;2.75;2.30;;;7.70;90.40;;;;;;5060558;28;20486;-78
2022/02/01 11:37:51;;;;;;;3.13;2.80;;;7.80;90.40;;;;;;5064852;28;20124;-77
2022/02/01 11:40:19;;;;;;;3.17;2.70;;;7.80;90.40;;;;;;5066237;28;20020;-77
2022/02/01 11:43:00;;;;;;;3.10;2.40;;;7.80;90.40;;;;;;5069480;28;20093;-76
2022/02/01 11:45:33;;;;;;;2.60;2.10;;;7.90;90.40;;;;;;5078304;28;20036;-77
2022/02/01 11:48:00;;;;;;;3.10;2.67;;;8.00;90.40;;;;;;5071649;28;20021;-76
2022/02/01 11:50:27;;;;;;;2.83;2.60;;;8.00;90.40;;;;;;5078942;28;20692;-77
2022/02/01 11:52:56;;;;;;;1.98;1.80;;;8.10;90.40;;;;;;5067618;28;20025;-76
2022/02/01 11:55:28;;;;;;;2.33;2.13;;;8.10;90.40;;;;;;5064897;28;20044;-75
2022/02/01 11:57:59;;;;;;;2.45;2.25;;;8.10;90.40;;;;;;5074583;28;20027;-75
2022/02/01 12:00:26;;;;;;;3.30;2.60;;;8.20;90.40;;;;;;5071882;28;20027;-74
2022/02/01 12:02:57;;;;;;;3.00;2.40;;;8.20;90.50;;;;;;5068170;28;20028;-75
2022/02/01 12:05:28;;;;;;;2.25;2.05;;;8.20;90.50;;;;;;5066104;28;20048;-74
2022/02/01 12:08:13;;;;;;;2.50;2.30;;;8.30;90.50;;;;;;5072344;28;20068;-73
2022/02/01 12:10:47;;;;;;;2.58;2.38;;;8.40;90.50;;;;;;5069903;28;20028;-74
2022/02/01 12:13:15;;;;;;;3.60;2.17;;;8.40;90.40;;;;;;5062493;28;20546;-74
2022/02/01 12:15:43;;;;;;;2.47;2.28;;;8.40;90.40;;;;;;5072643;28;20046;-72
2022/02/01 12:18:11;;;;;;;2.80;2.10;;;8.50;90.40;;;;;;5074286;28;20020;-73
2022/02/01 12:20:38;;;;;;;3.58;2.80;;;8.50;90.40;;;;;;5072799;28;20640;-73
2022/02/01 12:23:24;;;;;;;5.53;3.72;;;8.50;90.40;;;;;;5071379;28;20410;-74
2022/02/01 12:25:51;;;;;;;3.60;2.40;;;8.60;90.50;;;;;;5076796;28;20515;-73
2022/02/01 12:28:27;;;;;;;4.03;3.05;;;8.60;90.50;;;;;;5073810;28;20027;-75
2022/02/01 12:31:11;;;;;;;3.20;2.40;;;8.60;90.60;;;;;;5072334;28;20502;-74
2022/02/01 12:33:48;;;;;;;4.25;3.13;;;8.70;90.60;;;;;;5080205;28;20121;-76
2022/02/01 12:36:15;;;;;;;5.07;3.03;;;8.70;90.50;;;;;;5069665;28;20117;-75
2022/02/01 12:38:43;;;;;;;8.43;3.83;;;8.80;90.50;;;;;;5079821;28;20024;-74
2022/02/01 12:41:18;;;;;;;6.45;3.65;;;8.80;90.50;;;;;;5069981;28;20380;-75
2022/02/01 12:46:40;;;;;;;;;;;8.90;90.50;;;;;;5060067;28;20064;-78
2022/02/01 12:49:05;;;;;;;8.55;3.88;;;9.00;90.50;;;;;;5053255;28;19909;-79
2022/02/01 12:51:43;;;;;;;6.85;3.60;;;9.00;90.50;;;;;;5052911;28;20565;-79
2022/02/01 12:54:24;;;;;;;8.63;3.67;;;9.00;90.60;;;;;;5053767;28;20040;-79
2022/02/01 12:56:51;;;;;;;10.10;3.90;;;9.00;90.50;;;;;;5060255;28;20028;-75
2022/02/01 12:59:22;;;;;;;8.27;3.67;;;9.10;90.50;;;;;;5053413;28;20097;-74
2022/02/01 13:01:49;;;;;;;9.57;3.60;;;9.10;90.50;;;;;;5058145;28;20073;-74
2022/02/01 13:04:22;;;;;;;9.82;3.80;;;9.20;90.50;;;;;;5065781;28;20078;-74
2022/02/01 13:06:49;;;;;;;7.43;3.63;;;9.20;90.50;;;;;;5063496;28;20064;-76
2022/02/01 13:14:54;;;;;;;7.80;3.33;;;9.20;90.50;;;;;;5069593;28;20518;-73
2022/02/01 13:17:43;;;;;;;8.70;3.85;;;9.20;90.50;;;;;;5067296;28;20145;-75
2022/02/01 13:20:19;;;;;;;10.55;4.50;;;9.30;90.50;;;;;;5062648;28;20111;-75
2022/02/01 13:22:50;;;;;;;8.30;3.90;;;9.30;90.50;;;;;;5071062;28;20111;-74
2022/02/01 13:25:16;;;;;;;9.45;3.75;;;9.30;90.50;;;;;;5064855;28;20036;-73
2022/02/01 13:27:42;;;;;;;7.25;3.67;;;9.40;90.50;;;;;;5069329;28;20024;-73
2022/02/01 13:30:10;;;;;;;6.55;2.90;;;9.40;90.50;;;;;;5065184;28;20443;-74
2022/02/01 13:32:38;;;;;;;8.07;3.70;;;9.40;90.50;;;;;;5068091;28;20433;-75
2022/02/01 13:35:06;;;;;;;12.13;5.32;;;9.40;90.40;;;;;;5060051;28;20032;-74
2022/02/01 13:37:33;;;;;;;8.43;3.30;;;9.50;90.40;;;;;;5062550;28;20020;-78
2022/02/01 13:39:59;;;;;;;8.75;3.70;;;9.40;90.40;;;;;;5066406;28;20722;-76
2022/02/01 13:42:31;;;;;;;7.80;3.20;;;9.40;90.40;;;;;;5069760;28;20025;-74
2022/02/01 13:45:05;;;;;;;8.95;3.58;;;9.40;90.40;;;;;;5058281;28;20036;-75
2022/02/01 13:47:36;;;;;;;8.27;3.70;;;9.50;90.50;;;;;;5059546;28;20032;-73
2022/02/01 13:50:06;;;;;;;7.40;3.67;;;9.50;90.50;;;;;;5062498;28;20020;-74
2022/02/01 13:52:32;;;;;;;8.43;3.58;;;9.50;90.50;;;;;;5060749;28;20033;-75
2022/02/01 13:54:59;;;;;;;11.27;4.35;;;9.50;90.40;;;;;;5063633;28;20024;-76
2022/02/01 13:57:32;;;;;;;8.38;2.95;;;9.50;90.50;;;;;;5061912;28;20016;-76
2022/02/01 14:00:12;;;;;;;6.40;3.03;;;9.50;90.50;;;;;;5061245;28;20025;-76
2022/02/01 14:02:48;;;;;;;6.93;3.03;;;9.60;90.50;;;;;;5060695;28;20073;-76
2022/02/01 14:05:24;;;;;;;6.28;2.47;;;9.50;90.50;;;;;;5060434;28;20078;-76
2022/02/01 14:10:50;;;;;;;8.77;3.22;;;9.50;90.40;;;;;;5058787;28;20051;-73
2022/02/01 14:25:05;;;;;;;9.27;3.15;;;9.60;90.40;;;;;;5069795;28;20036;-73
2022/02/01 14:27:14;;;;;;;7.53;2.90;;;9.60;90.40;;;;;;5064613;28;20060;-73
2022/02/01 14:32:40;;;;;;;9.40;3.50;;;9.60;90.40;;;;;;5067338;28;20029;-73
2022/02/01 14:34:59;;;;;;;9.15;3.40;;;9.60;90.40;;;;;;5063468;28;20036;-79
2022/02/01 14:37:42;;;;;;;9.68;3.35;;;9.60;90.40;;;;;;5059998;28;20021;-78
2022/02/01 14:43:21;;;;;;;6.60;2.90;;;9.60;90.30;;;;;;5061746;28;20040;-78
2022/02/01 14:45:46;;;;;;;6.93;2.85;;;9.60;90.30;;;;;;5055110;28;20043;-74